East Franklin, North Carolina
Current Conditions -  °F | °C
As of 1:15 PM on Thursday 29 Jan 2015 (Local Time) from KRHP Reporting Station
Overcast Overcast  
Wind Chill: 44°   Ceiling: 9000
Heat Index: 44°   Visibility: 10mi
Dew Point: 35°   Wind: 3mph
Humidity: 69%   Direction: 90°E
Pressure: 30.15"   Gusts: NA
Location:  35.1737°N, 83.4215°W
Report Text: KRHP 291815Z AUTO 09003KT 10SM SCT050 OVC090 07/01 A3015 RMK AO2 T00670014
Loading
Personal Weather Stations






























Interactive Weather Map New forecast layout! Learn more

10-Day Weather Forecast

Advertisements
Track Severe Weather on mobile